sensor_id;sensor_type;location;lat;lon;timestamp;P1;durP1;ratioP1;P2;durP2;ratioP2
19869;SDS011;10097;50.862;4.696;2023-04-28T00:01:06;31.43;;;16.80;;
19869;SDS011;10097;50.862;4.696;2023-04-28T00:03:32;31.57;;;16.73;;
19869;SDS011;10097;50.862;4.696;2023-04-28T00:05:57;29.97;;;16.37;;
19869;SDS011;10097;50.862;4.696;2023-04-28T00:08:23;32.57;;;17.57;;
19869;SDS011;10097;50.862;4.696;2023-04-28T00:10:51;32.27;;;17.73;;
19869;SDS011;10097;50.862;4.696;2023-04-28T00:13:17;36.50;;;18.90;;
19869;SDS011;10097;50.862;4.696;2023-04-28T00:15:43;38.87;;;19.07;;
19869;SDS011;10097;50.862;4.696;2023-04-28T00:18:08;35.63;;;19.03;;
19869;SDS011;10097;50.862;4.696;2023-04-28T00:20:34;36.40;;;18.90;;
19869;SDS011;10097;50.862;4.696;2023-04-28T00:23:00;34.07;;;18.83;;
19869;SDS011;10097;50.862;4.696;2023-04-28T00:25:26;36.13;;;19.37;;
19869;SDS011;10097;50.862;4.696;2023-04-28T00:27:52;39.23;;;20.07;;
19869;SDS011;10097;50.862;4.696;2023-04-28T00:30:17;33.10;;;19.70;;
19869;SDS011;10097;50.862;4.696;2023-04-28T00:32:43;36.90;;;19.23;;
19869;SDS011;10097;50.862;4.696;2023-04-28T00:35:09;38.57;;;20.87;;
19869;SDS011;10097;50.862;4.696;2023-04-28T00:37:35;37.47;;;20.30;;
19869;SDS011;10097;50.862;4.696;2023-04-28T00:40:01;36.17;;;20.83;;
19869;SDS011;10097;50.862;4.696;2023-04-28T00:42:27;35.23;;;20.90;;
19869;SDS011;10097;50.862;4.696;2023-04-28T00:44:54;42.00;;;21.27;;
19869;SDS011;10097;50.862;4.696;2023-04-28T00:47:19;43.27;;;21.33;;
19869;SDS011;10097;50.862;4.696;2023-04-28T00:49:46;39.00;;;21.17;;
19869;SDS011;10097;50.862;4.696;2023-04-28T00:52:13;39.43;;;21.13;;
19869;SDS011;10097;50.862;4.696;2023-04-28T00:54:39;37.77;;;21.47;;
19869;SDS011;10097;50.862;4.696;2023-04-28T00:57:07;43.43;;;23.03;;
19869;SDS011;10097;50.862;4.696;2023-04-28T00:59:34;40.17;;;21.50;;
19869;SDS011;10097;50.862;4.696;2023-04-28T01:02:00;43.63;;;22.47;;
19869;SDS011;10097;50.862;4.696;2023-04-28T01:04:28;41.00;;;22.83;;
19869;SDS011;10097;50.862;4.696;2023-04-28T01:06:54;42.60;;;21.47;;
19869;SDS011;10097;50.862;4.696;2023-04-28T01:09:20;42.67;;;22.53;;
19869;SDS011;10097;50.862;4.696;2023-04-28T01:11:46;38.97;;;22.67;;
19869;SDS011;10097;50.862;4.696;2023-04-28T01:14:12;35.40;;;21.67;;
19869;SDS011;10097;50.862;4.696;2023-04-28T01:16:37;42.73;;;22.80;;
19869;SDS011;10097;50.862;4.696;2023-04-28T01:19:07;39.10;;;22.30;;
19869;SDS011;10097;50.862;4.696;2023-04-28T01:21:41;41.57;;;23.67;;
19869;SDS011;10097;50.862;4.696;2023-04-28T01:24:06;40.00;;;21.53;;
19869;SDS011;10097;50.862;4.696;2023-04-28T01:26:32;35.70;;;22.13;;
19869;SDS011;10097;50.862;4.696;2023-04-28T01:28:58;38.17;;;22.50;;
19869;SDS011;10097;50.862;4.696;2023-04-28T01:31:24;37.40;;;22.40;;
19869;SDS011;10097;50.862;4.696;2023-04-28T01:33:49;34.70;;;21.77;;
19869;SDS011;10097;50.862;4.696;2023-04-28T01:36:15;36.00;;;20.67;;
19869;SDS011;10097;50.862;4.696;2023-04-28T01:38:41;40.23;;;22.73;;
19869;SDS011;10097;50.862;4.696;2023-04-28T01:41:07;36.50;;;21.70;;
19869;SDS011;10097;50.862;4.696;2023-04-28T01:43:32;39.97;;;22.17;;
19869;SDS011;10097;50.862;4.696;2023-04-28T01:45:58;36.77;;;20.63;;
19869;SDS011;10097;50.862;4.696;2023-04-28T01:48:23;36.67;;;21.23;;
19869;SDS011;10097;50.862;4.696;2023-04-28T01:50:49;39.27;;;21.57;;
19869;SDS011;10097;50.862;4.696;2023-04-28T01:53:15;35.43;;;21.40;;
19869;SDS011;10097;50.862;4.696;2023-04-28T01:55:44;39.07;;;20.83;;
19869;SDS011;10097;50.862;4.696;2023-04-28T01:58:10;41.23;;;20.40;;
19869;SDS011;10097;50.862;4.696;2023-04-28T02:00:36;40.53;;;20.87;;
19869;SDS011;10097;50.862;4.696;2023-04-28T02:03:02;33.33;;;19.90;;
19869;SDS011;10097;50.862;4.696;2023-04-28T02:05:28;34.40;;;20.37;;
19869;SDS011;10097;50.862;4.696;2023-04-28T02:07:53;34.90;;;21.33;;
19869;SDS011;10097;50.862;4.696;2023-04-28T02:10:20;33.80;;;20.83;;
19869;SDS011;10097;50.862;4.696;2023-04-28T02:12:45;35.13;;;20.53;;
19869;SDS011;10097;50.862;4.696;2023-04-28T02:15:11;35.60;;;19.33;;
19869;SDS011;10097;50.862;4.696;2023-04-28T02:17:36;38.07;;;20.57;;
19869;SDS011;10097;50.862;4.696;2023-04-28T02:20:02;37.70;;;21.17;;
19869;SDS011;10097;50.862;4.696;2023-04-28T02:22:29;41.03;;;20.17;;
19869;SDS011;10097;50.862;4.696;2023-04-28T02:24:54;35.63;;;21.33;;
19869;SDS011;10097;50.862;4.696;2023-04-28T02:27:21;39.53;;;21.90;;
19869;SDS011;10097;50.862;4.696;2023-04-28T02:29:47;41.43;;;21.90;;
19869;SDS011;10097;50.862;4.696;2023-04-28T02:32:12;36.80;;;21.20;;
19869;SDS011;10097;50.862;4.696;2023-04-28T02:34:38;39.03;;;21.27;;
19869;SDS011;10097;50.862;4.696;2023-04-28T02:37:04;37.50;;;21.47;;
19869;SDS011;10097;50.862;4.696;2023-04-28T02:39:29;38.07;;;22.30;;
19869;SDS011;10097;50.862;4.696;2023-04-28T02:41:57;38.87;;;21.73;;
19869;SDS011;10097;50.862;4.696;2023-04-28T02:44:22;41.13;;;21.63;;
19869;SDS011;10097;50.862;4.696;2023-04-28T02:46:48;38.37;;;22.40;;
19869;SDS011;10097;50.862;4.696;2023-04-28T02:49:14;40.43;;;22.33;;
19869;SDS011;10097;50.862;4.696;2023-04-28T02:51:40;37.43;;;22.13;;
19869;SDS011;10097;50.862;4.696;2023-04-28T02:54:05;38.00;;;22.37;;
19869;SDS011;10097;50.862;4.696;2023-04-28T02:56:32;39.57;;;22.33;;
19869;SDS011;10097;50.862;4.696;2023-04-28T02:58:58;43.33;;;23.00;;
19869;SDS011;10097;50.862;4.696;2023-04-28T03:01:24;42.13;;;22.67;;
19869;SDS011;10097;50.862;4.696;2023-04-28T03:03:50;38.70;;;21.83;;
19869;SDS011;10097;50.862;4.696;2023-04-28T03:06:15;43.60;;;22.97;;
19869;SDS011;10097;50.862;4.696;2023-04-28T03:08:41;40.40;;;21.70;;
19869;SDS011;10097;50.862;4.696;2023-04-28T03:11:06;34.80;;;20.60;;
19869;SDS011;10097;50.862;4.696;2023-04-28T03:13:32;39.07;;;21.40;;
19869;SDS011;10097;50.862;4.696;2023-04-28T03:15:59;40.20;;;22.03;;
19869;SDS011;10097;50.862;4.696;2023-04-28T03:18:25;38.77;;;21.53;;
19869;SDS011;10097;50.862;4.696;2023-04-28T03:20:51;37.13;;;20.90;;
19869;SDS011;10097;50.862;4.696;2023-04-28T03:23:16;35.93;;;20.40;;
19869;SDS011;10097;50.862;4.696;2023-04-28T03:25:42;37.70;;;21.53;;
19869;SDS011;10097;50.862;4.696;2023-04-28T03:28:08;34.93;;;20.73;;
19869;SDS011;10097;50.862;4.696;2023-04-28T03:30:34;34.90;;;20.63;;
19869;SDS011;10097;50.862;4.696;2023-04-28T03:33:00;33.97;;;20.47;;
19869;SDS011;10097;50.862;4.696;2023-04-28T03:35:26;33.87;;;21.13;;
19869;SDS011;10097;50.862;4.696;2023-04-28T03:37:51;37.50;;;20.50;;
19869;SDS011;10097;50.862;4.696;2023-04-28T03:40:17;41.13;;;21.60;;
19869;SDS011;10097;50.862;4.696;2023-04-28T03:42:43;40.80;;;21.73;;
19869;SDS011;10097;50.862;4.696;2023-04-28T03:45:08;40.80;;;21.63;;
19869;SDS011;10097;50.862;4.696;2023-04-28T03:47:35;36.67;;;20.87;;
19869;SDS011;10097;50.862;4.696;2023-04-28T03:50:01;37.57;;;22.27;;
19869;SDS011;10097;50.862;4.696;2023-04-28T03:52:26;38.40;;;22.77;;
19869;SDS011;10097;50.862;4.696;2023-04-28T03:54:52;37.77;;;20.53;;
19869;SDS011;10097;50.862;4.696;2023-04-28T03:57:18;39.33;;;21.87;;
19869;SDS011;10097;50.862;4.696;2023-04-28T03:59:43;41.70;;;23.00;;
19869;SDS011;10097;50.862;4.696;2023-04-28T04:02:12;39.87;;;22.77;;
19869;SDS011;10097;50.862;4.696;2023-04-28T04:04:38;41.43;;;21.40;;
19869;SDS011;10097;50.862;4.696;2023-04-28T04:07:03;39.37;;;22.93;;
19869;SDS011;10097;50.862;4.696;2023-04-28T04:09:29;41.97;;;23.43;;
19869;SDS011;10097;50.862;4.696;2023-04-28T04:11:55;38.40;;;22.90;;
19869;SDS011;10097;50.862;4.696;2023-04-28T04:14:21;40.43;;;23.23;;
19869;SDS011;10097;50.862;4.696;2023-04-28T04:16:46;40.10;;;23.13;;
19869;SDS011;10097;50.862;4.696;2023-04-28T04:19:12;38.33;;;23.63;;
19869;SDS011;10097;50.862;4.696;2023-04-28T04:21:38;46.47;;;24.03;;
19869;SDS011;10097;50.862;4.696;2023-04-28T04:24:04;39.47;;;22.73;;
19869;SDS011;10097;50.862;4.696;2023-04-28T04:26:29;41.77;;;24.47;;
19869;SDS011;10097;50.862;4.696;2023-04-28T04:28:55;39.90;;;23.57;;
19869;SDS011;10097;50.862;4.696;2023-04-28T04:31:21;41.27;;;23.43;;
19869;SDS011;10097;50.862;4.696;2023-04-28T04:33:47;37.63;;;23.77;;
19869;SDS011;10097;50.862;4.696;2023-04-28T04:36:12;43.07;;;24.27;;
19869;SDS011;10097;50.862;4.696;2023-04-28T04:38:38;40.97;;;23.53;;
19869;SDS011;10097;50.862;4.696;2023-04-28T04:41:04;37.77;;;23.30;;
19869;SDS011;10097;50.862;4.696;2023-04-28T04:43:30;40.30;;;22.93;;
19869;SDS011;10097;50.862;4.696;2023-04-28T04:45:56;37.80;;;23.03;;
19869;SDS011;10097;50.862;4.696;2023-04-28T04:48:22;42.97;;;23.57;;
19869;SDS011;10097;50.862;4.696;2023-04-28T04:50:47;39.67;;;22.43;;
19869;SDS011;10097;50.862;4.696;2023-04-28T04:53:13;41.93;;;24.43;;
19869;SDS011;10097;50.862;4.696;2023-04-28T04:55:39;44.47;;;24.30;;
19869;SDS011;10097;50.862;4.696;2023-04-28T04:58:05;42.70;;;23.80;;
19869;SDS011;10097;50.862;4.696;2023-04-28T05:00:30;43.03;;;23.90;;
19869;SDS011;10097;50.862;4.696;2023-04-28T05:02:56;43.37;;;23.57;;
19869;SDS011;10097;50.862;4.696;2023-04-28T05:05:22;41.03;;;24.03;;
19869;SDS011;10097;50.862;4.696;2023-04-28T05:07:47;40.03;;;22.93;;
19869;SDS011;10097;50.862;4.696;2023-04-28T05:10:13;41.70;;;23.03;;
19869;SDS011;10097;50.862;4.696;2023-04-28T05:12:39;44.40;;;24.33;;
19869;SDS011;10097;50.862;4.696;2023-04-28T05:15:05;39.27;;;22.40;;
19869;SDS011;10097;50.862;4.696;2023-04-28T05:17:32;36.20;;;22.10;;
19869;SDS011;10097;50.862;4.696;2023-04-28T05:19:57;38.97;;;22.50;;
19869;SDS011;10097;50.862;4.696;2023-04-28T05:22:28;39.03;;;22.77;;
19869;SDS011;10097;50.862;4.696;2023-04-28T05:24:55;38.90;;;22.90;;
19869;SDS011;10097;50.862;4.696;2023-04-28T05:27:20;41.47;;;23.83;;
19869;SDS011;10097;50.862;4.696;2023-04-28T05:29:46;37.83;;;22.23;;
19869;SDS011;10097;50.862;4.696;2023-04-28T05:32:12;39.40;;;22.70;;
19869;SDS011;10097;50.862;4.696;2023-04-28T05:34:37;35.40;;;21.87;;
19869;SDS011;10097;50.862;4.696;2023-04-28T05:37:03;38.97;;;22.37;;
19869;SDS011;10097;50.862;4.696;2023-04-28T05:39:29;36.83;;;21.53;;
19869;SDS011;10097;50.862;4.696;2023-04-28T05:41:54;37.87;;;22.60;;
19869;SDS011;10097;50.862;4.696;2023-04-28T05:44:22;37.90;;;22.10;;
19869;SDS011;10097;50.862;4.696;2023-04-28T05:46:53;39.23;;;22.27;;
19869;SDS011;10097;50.862;4.696;2023-04-28T05:49:18;34.93;;;22.03;;
19869;SDS011;10097;50.862;4.696;2023-04-28T05:51:44;36.63;;;21.67;;
19869;SDS011;10097;50.862;4.696;2023-04-28T05:54:10;33.57;;;20.93;;
19869;SDS011;10097;50.862;4.696;2023-04-28T05:56:35;38.80;;;22.00;;
19869;SDS011;10097;50.862;4.696;2023-04-28T05:59:01;36.50;;;21.17;;
19869;SDS011;10097;50.862;4.696;2023-04-28T06:01:28;37.17;;;21.77;;
19869;SDS011;10097;50.862;4.696;2023-04-28T06:03:55;35.73;;;21.60;;
19869;SDS011;10097;50.862;4.696;2023-04-28T06:06:22;36.33;;;21.87;;
19869;SDS011;10097;50.862;4.696;2023-04-28T06:08:49;38.63;;;22.10;;
19869;SDS011;10097;50.862;4.696;2023-04-28T06:11:17;36.80;;;22.20;;
19869;SDS011;10097;50.862;4.696;2023-04-28T06:13:48;33.47;;;21.67;;
19869;SDS011;10097;50.862;4.696;2023-04-28T06:16:15;37.33;;;21.33;;
19869;SDS011;10097;50.862;4.696;2023-04-28T06:18:41;35.63;;;22.13;;
19869;SDS011;10097;50.862;4.696;2023-04-28T06:21:07;40.13;;;23.00;;
19869;SDS011;10097;50.862;4.696;2023-04-28T06:23:33;34.70;;;21.83;;
19869;SDS011;10097;50.862;4.696;2023-04-28T06:25:59;38.37;;;21.10;;
19869;SDS011;10097;50.862;4.696;2023-04-28T06:28:25;32.87;;;20.37;;
19869;SDS011;10097;50.862;4.696;2023-04-28T06:30:51;33.93;;;21.27;;
19869;SDS011;10097;50.862;4.696;2023-04-28T06:33:16;33.90;;;21.10;;
19869;SDS011;10097;50.862;4.696;2023-04-28T06:35:42;36.23;;;22.53;;
19869;SDS011;10097;50.862;4.696;2023-04-28T06:38:08;36.30;;;21.63;;
19869;SDS011;10097;50.862;4.696;2023-04-28T06:40:33;33.87;;;20.53;;
19869;SDS011;10097;50.862;4.696;2023-04-28T06:42:59;35.90;;;20.90;;
19869;SDS011;10097;50.862;4.696;2023-04-28T06:45:25;37.30;;;21.60;;
19869;SDS011;10097;50.862;4.696;2023-04-28T06:47:51;36.33;;;21.17;;
19869;SDS011;10097;50.862;4.696;2023-04-28T06:50:19;36.13;;;21.13;;
19869;SDS011;10097;50.862;4.696;2023-04-28T06:52:45;33.33;;;17.83;;
19869;SDS011;10097;50.862;4.696;2023-04-28T06:55:13;34.97;;;19.20;;
19869;SDS011;10097;50.862;4.696;2023-04-28T06:57:40;32.33;;;19.07;;
19869;SDS011;10097;50.862;4.696;2023-04-28T07:00:06;30.70;;;18.27;;
19869;SDS011;10097;50.862;4.696;2023-04-28T07:02:32;27.73;;;17.00;;
19869;SDS011;10097;50.862;4.696;2023-04-28T07:04:59;28.47;;;17.03;;
19869;SDS011;10097;50.862;4.696;2023-04-28T07:07:24;29.57;;;15.57;;
19869;SDS011;10097;50.862;4.696;2023-04-28T07:09:50;24.27;;;14.37;;
19869;SDS011;10097;50.862;4.696;2023-04-28T07:12:17;20.27;;;12.93;;
19869;SDS011;10097;50.862;4.696;2023-04-28T07:14:43;19.23;;;11.23;;
19869;SDS011;10097;50.862;4.696;2023-04-28T07:17:09;15.83;;;9.43;;
19869;SDS011;10097;50.862;4.696;2023-04-28T07:19:34;16.10;;;9.83;;
19869;SDS011;10097;50.862;4.696;2023-04-28T07:22:00;13.57;;;7.67;;
19869;SDS011;10097;50.862;4.696;2023-04-28T07:24:27;14.20;;;6.97;;
19869;SDS011;10097;50.862;4.696;2023-04-28T07:26:52;11.95;;;5.97;;
19869;SDS011;10097;50.862;4.696;2023-04-28T07:29:18;11.63;;;6.00;;
19869;SDS011;10097;50.862;4.696;2023-04-28T07:31:44;8.13;;;4.53;;
19869;SDS011;10097;50.862;4.696;2023-04-28T07:34:10;9.13;;;4.47;;
19869;SDS011;10097;50.862;4.696;2023-04-28T07:36:35;6.47;;;3.60;;
19869;SDS011;10097;50.862;4.696;2023-04-28T07:39:01;6.93;;;3.30;;
19869;SDS011;10097;50.862;4.696;2023-04-28T07:41:27;5.13;;;2.90;;
19869;SDS011;10097;50.862;4.696;2023-04-28T07:43:53;6.32;;;3.17;;
19869;SDS011;10097;50.862;4.696;2023-04-28T07:46:19;5.38;;;2.80;;
19869;SDS011;10097;50.862;4.696;2023-04-28T07:48:44;7.05;;;3.25;;
19869;SDS011;10097;50.862;4.696;2023-04-28T07:51:10;4.97;;;3.03;;
19869;SDS011;10097;50.862;4.696;2023-04-28T07:53:36;5.07;;;3.00;;
19869;SDS011;10097;50.862;4.696;2023-04-28T07:56:01;5.53;;;3.05;;
19869;SDS011;10097;50.862;4.696;2023-04-28T07:58:27;7.72;;;2.88;;
19869;SDS011;10097;50.862;4.696;2023-04-28T08:00:53;8.65;;;3.13;;
19869;SDS011;10097;50.862;4.696;2023-04-28T08:03:18;4.60;;;2.80;;
19869;SDS011;10097;50.862;4.696;2023-04-28T08:05:45;5.18;;;2.83;;
19869;SDS011;10097;50.862;4.696;2023-04-28T08:08:11;3.35;;;2.30;;
19869;SDS011;10097;50.862;4.696;2023-04-28T08:10:36;4.75;;;2.50;;
19869;SDS011;10097;50.862;4.696;2023-04-28T08:13:05;2.83;;;1.85;;
19869;SDS011;10097;50.862;4.696;2023-04-28T08:15:31;2.83;;;1.95;;
19869;SDS011;10097;50.862;4.696;2023-04-28T08:17:57;4.78;;;2.70;;
19869;SDS011;10097;50.862;4.696;2023-04-28T08:20:23;6.70;;;2.30;;
19869;SDS011;10097;50.862;4.696;2023-04-28T08:22:49;3.17;;;2.08;;
19869;SDS011;10097;50.862;4.696;2023-04-28T08:25:15;3.60;;;1.80;;
19869;SDS011;10097;50.862;4.696;2023-04-28T08:27:40;3.70;;;1.70;;
19869;SDS011;10097;50.862;4.696;2023-04-28T08:30:06;3.97;;;1.60;;
19869;SDS011;10097;50.862;4.696;2023-04-28T08:32:33;3.78;;;1.50;;
19869;SDS011;10097;50.862;4.696;2023-04-28T08:34:59;2.35;;;1.30;;
19869;SDS011;10097;50.862;4.696;2023-04-28T08:37:27;5.15;;;1.60;;
19869;SDS011;10097;50.862;4.696;2023-04-28T08:39:53;4.90;;;1.60;;
19869;SDS011;10097;50.862;4.696;2023-04-28T08:42:29;2.78;;;1.20;;
19869;SDS011;10097;50.862;4.696;2023-04-28T08:44:56;2.45;;;1.27;;
19869;SDS011;10097;50.862;4.696;2023-04-28T08:47:35;1.23;;;0.73;;
19869;SDS011;10097;50.862;4.696;2023-04-28T08:50:03;1.83;;;1.08;;
19869;SDS011;10097;50.862;4.696;2023-04-28T08:52:31;2.35;;;1.00;;
19869;SDS011;10097;50.862;4.696;2023-04-28T08:54:58;2.10;;;0.95;;
19869;SDS011;10097;50.862;4.696;2023-04-28T08:57:26;2.85;;;1.00;;
19869;SDS011;10097;50.862;4.696;2023-04-28T08:59:52;1.48;;;0.90;;
19869;SDS011;10097;50.862;4.696;2023-04-28T09:02:18;2.00;;;1.02;;
19869;SDS011;10097;50.862;4.696;2023-04-28T09:04:45;3.95;;;1.20;;
19869;SDS011;10097;50.862;4.696;2023-04-28T09:07:11;1.73;;;1.00;;
19869;SDS011;10097;50.862;4.696;2023-04-28T09:09:37;1.25;;;0.95;;
19869;SDS011;10097;50.862;4.696;2023-04-28T09:12:05;4.20;;;1.20;;
19869;SDS011;10097;50.862;4.696;2023-04-28T09:14:32;1.88;;;1.00;;
19869;SDS011;10097;50.862;4.696;2023-04-28T09:16:58;1.95;;;1.05;;
19869;SDS011;10097;50.862;4.696;2023-04-28T09:19:31;1.58;;;0.95;;
19869;SDS011;10097;50.862;4.696;2023-04-28T09:22:01;4.78;;;1.13;;
19869;SDS011;10097;50.862;4.696;2023-04-28T09:27:02;2.50;;;1.30;;
19869;SDS011;10097;50.862;4.696;2023-04-28T09:29:29;2.67;;;1.20;;
19869;SDS011;10097;50.862;4.696;2023-04-28T09:34:47;1.90;;;1.10;;
19869;SDS011;10097;50.862;4.696;2023-04-28T09:37:18;2.63;;;1.02;;
19869;SDS011;10097;50.862;4.696;2023-04-28T09:39:49;2.00;;;1.10;;
19869;SDS011;10097;50.862;4.696;2023-04-28T09:42:33;2.08;;;1.20;;
19869;SDS011;10097;50.862;4.696;2023-04-28T09:45:04;2.25;;;1.30;;
19869;SDS011;10097;50.862;4.696;2023-04-28T09:47:37;3.75;;;1.67;;
19869;SDS011;10097;50.862;4.696;2023-04-28T09:50:05;3.33;;;1.42;;
19869;SDS011;10097;50.862;4.696;2023-04-28T09:52:33;2.20;;;1.25;;
19869;SDS011;10097;50.862;4.696;2023-04-28T09:55:00;3.03;;;1.50;;
19869;SDS011;10097;50.862;4.696;2023-04-28T09:57:29;4.03;;;1.80;;
19869;SDS011;10097;50.862;4.696;2023-04-28T09:59:56;4.75;;;1.77;;
19869;SDS011;10097;50.862;4.696;2023-04-28T10:02:22;4.07;;;2.17;;
19869;SDS011;10097;50.862;4.696;2023-04-28T10:04:49;3.08;;;1.70;;
19869;SDS011;10097;50.862;4.696;2023-04-28T10:07:19;3.88;;;2.00;;
19869;SDS011;10097;50.862;4.696;2023-04-28T10:09:46;3.63;;;1.92;;
19869;SDS011;10097;50.862;4.696;2023-04-28T10:12:14;3.28;;;1.85;;
19869;SDS011;10097;50.862;4.696;2023-04-28T10:14:44;6.95;;;1.88;;
19869;SDS011;10097;50.862;4.696;2023-04-28T10:17:14;5.32;;;1.63;;
19869;SDS011;10097;50.862;4.696;2023-04-28T10:19:42;2.50;;;1.40;;
19869;SDS011;10097;50.862;4.696;2023-04-28T10:27:58;3.75;;;1.27;;
19869;SDS011;10097;50.862;4.696;2023-04-28T10:30:25;14.50;;;3.55;;
19869;SDS011;10097;50.862;4.696;2023-04-28T10:38:05;3.30;;;1.90;;
19869;SDS011;10097;50.862;4.696;2023-04-28T10:40:44;3.92;;;2.17;;
19869;SDS011;10097;50.862;4.696;2023-04-28T10:43:31;4.80;;;2.10;;
19869;SDS011;10097;50.862;4.696;2023-04-28T10:46:02;4.43;;;2.05;;
19869;SDS011;10097;50.862;4.696;2023-04-28T10:56:13;2.58;;;1.70;;
19869;SDS011;10097;50.862;4.696;2023-04-28T10:59:23;2.78;;;1.48;;
19869;SDS011;10097;50.862;4.696;2023-04-28T11:01:50;2.85;;;1.42;;
19869;SDS011;10097;50.862;4.696;2023-04-28T11:04:16;2.47;;;0.90;;
19869;SDS011;10097;50.862;4.696;2023-04-28T11:06:45;2.72;;;1.23;;
19869;SDS011;10097;50.862;4.696;2023-04-28T11:16:56;2.95;;;0.77;;
19869;SDS011;10097;50.862;4.696;2023-04-28T11:19:43;2.78;;;0.82;;
19869;SDS011;10097;50.862;4.696;2023-04-28T11:22:14;1.63;;;0.77;;
19869;SDS011;10097;50.862;4.696;2023-04-28T11:24:41;4.80;;;0.80;;
19869;SDS011;10097;50.862;4.696;2023-04-28T11:27:26;2.05;;;0.70;;
19869;SDS011;10097;50.862;4.696;2023-04-28T11:29:53;1.33;;;0.90;;
19869;SDS011;10097;50.862;4.696;2023-04-28T11:32:26;3.00;;;0.55;;
19869;SDS011;10097;50.862;4.696;2023-04-28T11:34:53;1.05;;;0.60;;
19869;SDS011;10097;50.862;4.696;2023-04-28T11:37:19;1.50;;;0.63;;
19869;SDS011;10097;50.862;4.696;2023-04-28T11:39:45;2.28;;;0.80;;
19869;SDS011;10097;50.862;4.696;2023-04-28T11:42:11;2.10;;;0.30;;
19869;SDS011;10097;50.862;4.696;2023-04-28T11:44:37;0.57;;;0.32;;
19869;SDS011;10097;50.862;4.696;2023-04-28T11:47:03;0.93;;;0.45;;
19869;SDS011;10097;50.862;4.696;2023-04-28T11:49:29;1.83;;;0.70;;
19869;SDS011;10097;50.862;4.696;2023-04-28T11:52:15;1.48;;;0.30;;
19869;SDS011;10097;50.862;4.696;2023-04-28T11:54:41;4.60;;;0.50;;
19869;SDS011;10097;50.862;4.696;2023-04-28T11:57:15;0.98;;;0.52;;
19869;SDS011;10097;50.862;4.696;2023-04-28T11:59:42;2.35;;;1.15;;
19869;SDS011;10097;50.862;4.696;2023-04-28T12:02:08;1.80;;;0.50;;
19869;SDS011;10097;50.862;4.696;2023-04-28T12:07:05;3.38;;;1.20;;
19869;SDS011;10097;50.862;4.696;2023-04-28T12:09:47;2.10;;;1.00;;
19869;SDS011;10097;50.862;4.696;2023-04-28T12:12:34;2.70;;;1.30;;
19869;SDS011;10097;50.862;4.696;2023-04-28T12:15:00;4.05;;;1.67;;
19869;SDS011;10097;50.862;4.696;2023-04-28T12:17:33;2.42;;;1.63;;
19869;SDS011;10097;50.862;4.696;2023-04-28T12:20:03;2.72;;;1.80;;
19869;SDS011;10097;50.862;4.696;2023-04-28T12:22:49;5.22;;;2.00;;
19869;SDS011;10097;50.862;4.696;2023-04-28T12:25:18;4.50;;;1.70;;
19869;SDS011;10097;50.862;4.696;2023-04-28T12:28:03;6.45;;;1.63;;
19869;SDS011;10097;50.862;4.696;2023-04-28T12:30:35;2.20;;;1.00;;
19869;SDS011;10097;50.862;4.696;2023-04-28T12:33:24;1.80;;;1.20;;
19869;SDS011;10097;50.862;4.696;2023-04-28T12:35:51;1.98;;;1.30;;
19869;SDS011;10097;50.862;4.696;2023-04-28T12:38:21;2.38;;;1.38;;
19869;SDS011;10097;50.862;4.696;2023-04-28T12:40:47;2.55;;;1.40;;
19869;SDS011;10097;50.862;4.696;2023-04-28T12:43:13;3.47;;;1.45;;
19869;SDS011;10097;50.862;4.696;2023-04-28T12:45:39;3.65;;;1.38;;
19869;SDS011;10097;50.862;4.696;2023-04-28T12:48:05;1.60;;;0.90;;
19869;SDS011;10097;50.862;4.696;2023-04-28T12:50:32;3.70;;;0.80;;
19869;SDS011;10097;50.862;4.696;2023-04-28T12:52:58;4.20;;;0.90;;
19869;SDS011;10097;50.862;4.696;2023-04-28T12:55:24;2.70;;;0.63;;
19869;SDS011;10097;50.862;4.696;2023-04-28T12:57:51;1.60;;;0.60;;
19869;SDS011;10097;50.862;4.696;2023-04-28T13:00:16;2.65;;;0.40;;
19869;SDS011;10097;50.862;4.696;2023-04-28T13:02:47;3.05;;;0.70;;
19869;SDS011;10097;50.862;4.696;2023-04-28T13:05:13;3.95;;;0.77;;
19869;SDS011;10097;50.862;4.696;2023-04-28T13:07:39;1.35;;;0.40;;
19869;SDS011;10097;50.862;4.696;2023-04-28T13:10:05;0.98;;;0.40;;
19869;SDS011;10097;50.862;4.696;2023-04-28T13:12:32;2.70;;;0.65;;
19869;SDS011;10097;50.862;4.696;2023-04-28T13:14:58;1.13;;;0.50;;
19869;SDS011;10097;50.862;4.696;2023-04-28T13:17:26;1.77;;;0.55;;
19869;SDS011;10097;50.862;4.696;2023-04-28T13:19:52;0.70;;;0.22;;
19869;SDS011;10097;50.862;4.696;2023-04-28T13:22:18;1.00;;;0.40;;
19869;SDS011;10097;50.862;4.696;2023-04-28T13:24:45;0.60;;;0.40;;
19869;SDS011;10097;50.862;4.696;2023-04-28T13:27:11;2.03;;;0.40;;
19869;SDS011;10097;50.862;4.696;2023-04-28T13:29:37;0.93;;;0.57;;
19869;SDS011;10097;50.862;4.696;2023-04-28T13:32:03;1.77;;;0.70;;
19869;SDS011;10097;50.862;4.696;2023-04-28T13:34:32;2.85;;;0.60;;
19869;SDS011;10097;50.862;4.696;2023-04-28T13:36:57;4.50;;;0.85;;
19869;SDS011;10097;50.862;4.696;2023-04-28T13:39:23;1.10;;;0.60;;
19869;SDS011;10097;50.862;4.696;2023-04-28T13:41:49;1.92;;;0.90;;
19869;SDS011;10097;50.862;4.696;2023-04-28T13:44:14;1.38;;;0.60;;
19869;SDS011;10097;50.862;4.696;2023-04-28T13:46:41;0.82;;;0.52;;
19869;SDS011;10097;50.862;4.696;2023-04-28T13:49:08;1.20;;;0.60;;
19869;SDS011;10097;50.862;4.696;2023-04-28T13:51:34;2.40;;;0.40;;
19869;SDS011;10097;50.862;4.696;2023-04-28T13:54:00;6.05;;;0.95;;
19869;SDS011;10097;50.862;4.696;2023-04-28T13:56:32;1.60;;;0.63;;
19869;SDS011;10097;50.862;4.696;2023-04-28T13:58:58;1.17;;;0.40;;
19869;SDS011;10097;50.862;4.696;2023-04-28T14:01:24;1.50;;;0.68;;
19869;SDS011;10097;50.862;4.696;2023-04-28T14:03:50;1.42;;;0.68;;
19869;SDS011;10097;50.862;4.696;2023-04-28T14:06:16;1.00;;;0.40;;
19869;SDS011;10097;50.862;4.696;2023-04-28T14:08:41;2.05;;;0.65;;
19869;SDS011;10097;50.862;4.696;2023-04-28T14:11:07;2.42;;;0.75;;
19869;SDS011;10097;50.862;4.696;2023-04-28T14:13:33;1.75;;;0.63;;
19869;SDS011;10097;50.862;4.696;2023-04-28T14:15:59;1.38;;;0.60;;
19869;SDS011;10097;50.862;4.696;2023-04-28T14:18:26;3.70;;;0.60;;
19869;SDS011;10097;50.862;4.696;2023-04-28T14:20:52;3.15;;;0.50;;
19869;SDS011;10097;50.862;4.696;2023-04-28T14:23:18;3.70;;;0.50;;
19869;SDS011;10097;50.862;4.696;2023-04-28T14:25:45;2.15;;;0.50;;
19869;SDS011;10097;50.862;4.696;2023-04-28T14:28:10;2.05;;;0.60;;
19869;SDS011;10097;50.862;4.696;2023-04-28T14:30:36;5.05;;;0.60;;
19869;SDS011;10097;50.862;4.696;2023-04-28T14:33:02;2.00;;;0.73;;
19869;SDS011;10097;50.862;4.696;2023-04-28T14:35:28;2.33;;;0.60;;
19869;SDS011;10097;50.862;4.696;2023-04-28T14:37:55;3.22;;;0.52;;
19869;SDS011;10097;50.862;4.696;2023-04-28T14:40:21;1.77;;;0.45;;
19869;SDS011;10097;50.862;4.696;2023-04-28T14:42:47;1.35;;;0.40;;
19869;SDS011;10097;50.862;4.696;2023-04-28T14:45:13;2.25;;;0.77;;
19869;SDS011;10097;50.862;4.696;2023-04-28T14:47:39;1.00;;;0.40;;
19869;SDS011;10097;50.862;4.696;2023-04-28T14:50:06;1.33;;;0.50;;
19869;SDS011;10097;50.862;4.696;2023-04-28T14:52:32;3.10;;;0.57;;
19869;SDS011;10097;50.862;4.696;2023-04-28T14:54:58;1.70;;;0.52;;
19869;SDS011;10097;50.862;4.696;2023-04-28T14:57:25;1.13;;;0.38;;
19869;SDS011;10097;50.862;4.696;2023-04-28T14:59:51;1.58;;;0.50;;
19869;SDS011;10097;50.862;4.696;2023-04-28T15:02:18;0.80;;;0.30;;
19869;SDS011;10097;50.862;4.696;2023-04-28T15:04:45;1.42;;;0.45;;
19869;SDS011;10097;50.862;4.696;2023-04-28T15:07:12;0.80;;;0.40;;